Time;durP1;ratioP1;P1;durP2;ratioP2;P2;SDS_P1;SDS_P2;PMS_P1;PMS_P2;Temp;Humidity;BMP_temperature;BMP_pressure;BME280_temperature;BME280_humidity;BME280_pressure;Samples;Min_cycle;Max_cycle;Signal;HPM_P1;HPM_P2
2020/12/14 00:01:31;;;;;;;67.28;11.60;;;3.10;99.90;;;;;;5081533;28;20209;-74
2020/12/14 00:03:57;;;;;;;64.32;11.00;;;3.10;99.90;;;;;;5080268;28;20211;-74
2020/12/14 00:06:24;;;;;;;67.07;12.10;;;3.00;99.90;;;;;;5082599;28;20293;-74
2020/12/14 00:08:50;;;;;;;66.85;11.00;;;3.00;99.90;;;;;;5081298;28;20255;-73
2020/12/14 00:11:16;;;;;;;64.40;10.88;;;2.90;99.90;;;;;;5083103;28;20263;-74
2020/12/14 00:13:42;;;;;;;67.40;11.48;;;2.90;99.90;;;;;;5086685;28;20227;-73
2020/12/14 00:16:10;;;;;;;67.55;11.13;;;2.80;99.90;;;;;;5082098;28;20229;-75
2020/12/14 00:18:36;;;;;;;64.50;10.02;;;2.80;99.90;;;;;;5073738;28;20296;-76
2020/12/14 00:21:02;;;;;;;65.20;10.60;;;2.80;99.90;;;;;;5073037;28;20205;-76
2020/12/14 00:23:29;;;;;;;65.00;10.43;;;2.70;99.90;;;;;;5073234;28;20205;-75
2020/12/14 00:25:55;;;;;;;67.25;10.05;;;2.70;99.90;;;;;;5072512;28;20252;-76
2020/12/14 00:28:21;;;;;;;67.00;9.85;;;2.60;99.90;;;;;;5072515;28;20267;-75
2020/12/14 00:30:48;;;;;;;66.28;10.77;;;2.60;99.90;;;;;;5071956;28;20235;-76
2020/12/14 00:33:15;;;;;;;64.15;11.00;;;2.50;99.90;;;;;;5072157;28;20707;-76
2020/12/14 00:35:41;;;;;;;63.50;10.18;;;2.50;99.90;;;;;;5071755;28;20232;-76
2020/12/14 00:38:07;;;;;;;66.30;11.13;;;2.50;99.90;;;;;;5072411;28;20205;-76
2020/12/14 00:40:34;;;;;;;69.50;12.02;;;2.50;99.90;;;;;;5072007;28;20205;-76
2020/12/14 00:43:00;;;;;;;66.15;11.18;;;2.40;99.90;;;;;;5072715;28;20606;-76
2020/12/14 00:45:26;;;;;;;69.00;11.05;;;2.40;99.90;;;;;;5072230;28;20847;-76
2020/12/14 00:47:52;;;;;;;67.95;12.02;;;2.30;99.90;;;;;;5072194;28;20208;-75
2020/12/14 00:50:20;;;;;;;66.78;11.45;;;2.30;99.90;;;;;;5071942;28;20224;-76
2020/12/14 00:52:46;;;;;;;69.60;11.50;;;2.30;99.90;;;;;;5072031;28;20213;-76
2020/12/14 00:55:12;;;;;;;68.63;11.45;;;2.30;99.90;;;;;;5071752;28;20262;-76
2020/12/14 00:57:39;;;;;;;67.15;10.80;;;2.30;99.90;;;;;;5072123;28;20212;-76
2020/12/14 01:00:05;;;;;;;67.32;11.05;;;2.30;99.90;;;;;;5071916;28;20201;-75
2020/12/14 01:02:32;;;;;;;66.85;10.77;;;2.30;99.90;;;;;;5071832;28;20607;-75
2020/12/14 01:04:58;;;;;;;65.47;11.20;;;2.30;99.90;;;;;;5072075;28;20300;-76
2020/12/14 01:07:25;;;;;;;68.20;13.02;;;2.20;99.90;;;;;;5071967;28;20229;-76
2020/12/14 01:09:51;;;;;;;66.75;11.13;;;2.20;99.90;;;;;;5071603;28;20229;-75
2020/12/14 01:12:17;;;;;;;66.00;10.60;;;2.20;99.90;;;;;;5071692;28;20237;-76
2020/12/14 01:14:44;;;;;;;67.97;9.85;;;2.20;99.90;;;;;;5072626;28;20213;-76
2020/12/14 01:17:10;;;;;;;66.28;10.98;;;2.20;99.90;;;;;;5075633;28;20733;-76
2020/12/14 01:19:37;;;;;;;73.97;10.77;;;2.20;99.90;;;;;;5075554;28;20207;-76
2020/12/14 01:22:03;;;;;;;63.22;9.95;;;2.20;99.90;;;;;;5075727;28;20295;-76
2020/12/14 01:24:30;;;;;;;66.43;10.68;;;2.10;99.90;;;;;;5075974;28;20291;-76
2020/12/14 01:26:56;;;;;;;66.65;10.98;;;2.10;99.90;;;;;;5075313;28;20232;-76
2020/12/14 01:29:23;;;;;;;66.65;10.63;;;2.00;99.90;;;;;;5075340;28;20312;-76
2020/12/14 01:31:49;;;;;;;63.15;8.95;;;2.00;99.90;;;;;;5075023;28;20296;-76
2020/12/14 01:34:15;;;;;;;68.10;11.13;;;2.00;99.90;;;;;;5075651;28;20288;-76
2020/12/14 01:36:42;;;;;;;67.00;11.05;;;2.00;99.90;;;;;;5075073;28;20228;-75
2020/12/14 01:39:08;;;;;;;67.03;11.65;;;2.00;99.90;;;;;;5075273;28;20631;-76
2020/12/14 01:41:35;;;;;;;63.05;9.63;;;2.00;99.90;;;;;;5074648;28;20212;-75
2020/12/14 01:44:02;;;;;;;69.55;11.48;;;2.00;99.90;;;;;;5074771;28;20297;-76
2020/12/14 01:46:31;;;;;;;66.68;11.95;;;2.00;99.90;;;;;;5074941;28;20232;-76
2020/12/14 01:49:00;;;;;;;69.65;11.00;;;2.00;99.90;;;;;;5075332;28;20642;-75
2020/12/14 01:51:28;;;;;;;71.95;11.15;;;2.00;99.90;;;;;;5074876;28;20296;-76
2020/12/14 01:53:57;;;;;;;68.47;10.93;;;2.00;99.90;;;;;;5074569;28;20217;-76
2020/12/14 01:56:23;;;;;;;68.63;11.52;;;2.00;99.90;;;;;;5074957;28;20581;-75
2020/12/14 01:58:51;;;;;;;68.80;11.07;;;2.00;99.90;;;;;;5075437;28;20205;-75
2020/12/14 02:01:18;;;;;;;68.13;11.35;;;2.00;99.90;;;;;;5075192;28;20227;-76
2020/12/14 02:03:44;;;;;;;66.18;9.73;;;2.00;99.90;;;;;;5074361;28;20204;-76
2020/12/14 02:06:11;;;;;;;68.95;11.25;;;2.00;99.90;;;;;;5074759;28;20229;-76
2020/12/14 02:08:37;;;;;;;66.40;9.90;;;2.00;99.90;;;;;;5074541;28;20225;-76
2020/12/14 02:11:04;;;;;;;73.57;10.30;;;2.00;99.90;;;;;;5074365;28;20300;-76
2020/12/14 02:13:31;;;;;;;69.90;10.95;;;1.90;99.90;;;;;;5074343;28;20295;-76
2020/12/14 02:15:58;;;;;;;66.22;10.25;;;1.90;99.90;;;;;;5074126;28;20646;-76
2020/12/14 02:18:24;;;;;;;72.43;11.10;;;1.90;99.90;;;;;;5074778;28;20288;-76
2020/12/14 02:20:51;;;;;;;70.82;11.50;;;1.90;99.90;;;;;;5074335;28;20300;-76
2020/12/14 02:23:17;;;;;;;69.50;12.23;;;1.90;99.90;;;;;;5074402;28;20239;-75
2020/12/14 02:25:44;;;;;;;77.72;12.65;;;1.90;99.90;;;;;;5073997;28;20312;-76
2020/12/14 02:28:11;;;;;;;70.28;11.55;;;1.90;99.90;;;;;;5074719;28;20300;-76
2020/12/14 02:30:37;;;;;;;70.50;11.18;;;1.90;99.90;;;;;;5074226;28;20236;-76
2020/12/14 02:33:03;;;;;;;69.20;12.23;;;1.90;99.90;;;;;;5074324;28;20216;-76
2020/12/14 02:35:30;;;;;;;68.63;11.15;;;1.90;99.90;;;;;;5074304;28;20225;-76
2020/12/14 02:37:56;;;;;;;72.03;11.85;;;1.90;99.90;;;;;;5074116;28;20305;-76
2020/12/14 02:40:22;;;;;;;71.03;10.98;;;1.90;99.90;;;;;;5071363;28;20526;-76
2020/12/14 02:42:49;;;;;;;70.28;11.48;;;1.90;99.90;;;;;;5053905;28;20257;-76
2020/12/14 02:45:16;;;;;;;69.68;12.35;;;1.90;99.90;;;;;;5054082;28;20209;-75
2020/12/14 02:47:42;;;;;;;72.13;10.60;;;1.90;99.90;;;;;;5054040;28;20210;-75
2020/12/14 02:50:08;;;;;;;68.35;11.20;;;1.90;99.90;;;;;;5068488;28;20665;-76
2020/12/14 02:52:35;;;;;;;70.45;11.25;;;1.90;99.90;;;;;;5073972;28;20216;-76
2020/12/14 02:55:01;;;;;;;66.00;10.98;;;1.90;99.90;;;;;;5073861;28;20295;-76
2020/12/14 02:57:27;;;;;;;70.15;11.38;;;1.80;99.90;;;;;;5073978;28;20299;-74
2020/12/14 02:59:54;;;;;;;71.85;10.93;;;1.80;99.90;;;;;;5072838;28;20205;-74
2020/12/14 03:02:21;;;;;;;69.30;10.82;;;1.70;99.90;;;;;;5072885;28;20583;-74
2020/12/14 03:04:47;;;;;;;70.70;11.75;;;1.70;99.90;;;;;;5072517;28;20201;-74
2020/12/14 03:07:13;;;;;;;73.70;13.85;;;1.70;99.90;;;;;;5073104;28;20247;-74
2020/12/14 03:09:40;;;;;;;84.65;14.68;;;1.70;99.90;;;;;;5072667;28;20707;-74
2020/12/14 03:12:06;;;;;;;75.35;13.10;;;1.60;99.90;;;;;;5072454;28;20307;-74
2020/12/14 03:14:32;;;;;;;72.55;12.48;;;1.60;99.90;;;;;;5072832;28;20264;-74
2020/12/14 03:17:01;;;;;;;76.63;14.00;;;1.60;99.90;;;;;;5072702;28;20228;-74
2020/12/14 03:19:27;;;;;;;74.93;14.00;;;1.60;99.90;;;;;;5072518;28;20691;-74
2020/12/14 03:21:54;;;;;;;81.28;14.55;;;1.50;99.90;;;;;;5072530;28;20541;-74
2020/12/14 03:24:20;;;;;;;71.82;12.95;;;1.50;99.90;;;;;;5072403;28;20228;-74
2020/12/14 03:26:48;;;;;;;71.70;11.85;;;1.50;99.90;;;;;;5072523;28;20225;-74
2020/12/14 03:29:14;;;;;;;78.63;13.77;;;1.40;99.90;;;;;;5072843;28;20228;-74
2020/12/14 03:31:41;;;;;;;69.10;11.05;;;1.40;99.90;;;;;;5072637;28;20600;-74
2020/12/14 03:34:08;;;;;;;76.85;13.00;;;1.40;99.90;;;;;;5072000;28;20207;-74
2020/12/14 03:36:34;;;;;;;72.30;12.60;;;1.40;99.90;;;;;;5072354;28;20224;-74
2020/12/14 03:39:00;;;;;;;72.07;12.32;;;1.40;99.90;;;;;;5071711;28;20367;-74
2020/12/14 03:41:27;;;;;;;66.70;10.55;;;1.40;99.90;;;;;;5072055;28;20668;-74
2020/12/14 03:43:53;;;;;;;71.25;12.15;;;1.40;99.90;;;;;;5071922;28;20208;-74
2020/12/14 03:46:21;;;;;;;73.82;12.00;;;1.40;99.90;;;;;;5071948;28;20278;-74
2020/12/14 03:48:48;;;;;;;75.45;11.52;;;1.30;99.90;;;;;;5072144;28;20229;-74
2020/12/14 03:51:15;;;;;;;70.60;12.00;;;1.30;99.90;;;;;;5072041;28;20645;-74
2020/12/14 03:53:41;;;;;;;71.35;11.10;;;1.30;99.90;;;;;;5071869;28;20205;-74
2020/12/14 03:56:08;;;;;;;71.72;11.95;;;1.30;99.90;;;;;;5071935;28;20318;-74
2020/12/14 03:58:34;;;;;;;70.30;11.48;;;1.30;99.90;;;;;;5073145;28;20262;-73
2020/12/14 04:01:00;;;;;;;69.32;11.15;;;1.30;99.90;;;;;;5072123;28;20213;-74
2020/12/14 04:03:27;;;;;;;67.90;10.63;;;1.30;99.90;;;;;;5072125;28;20680;-74
2020/12/14 04:05:53;;;;;;;72.30;11.20;;;1.30;99.90;;;;;;5071638;28;20235;-74
2020/12/14 04:08:21;;;;;;;69.38;10.52;;;1.30;99.90;;;;;;5072189;28;20296;-74
2020/12/14 04:10:47;;;;;;;69.75;11.00;;;1.20;99.90;;;;;;5071869;28;20247;-74
2020/12/14 04:13:14;;;;;;;67.90;10.65;;;1.20;99.90;;;;;;5071692;28;20205;-74
2020/12/14 04:15:40;;;;;;;67.97;11.52;;;1.10;99.90;;;;;;5071420;28;20599;-74
2020/12/14 04:18:06;;;;;;;70.43;11.00;;;1.10;99.90;;;;;;5071504;28;20692;-74
2020/12/14 04:20:33;;;;;;;67.60;11.23;;;1.10;99.90;;;;;;5071588;28;20204;-74
2020/12/14 04:22:59;;;;;;;71.75;11.35;;;1.00;99.90;;;;;;5071583;28;20219;-74
2020/12/14 04:25:26;;;;;;;71.15;11.10;;;1.00;99.90;;;;;;5071341;28;20762;-74
2020/12/14 04:27:57;;;;;;;71.95;12.40;;;1.00;99.90;;;;;;5071573;28;20295;-74
2020/12/14 04:30:24;;;;;;;75.85;11.30;;;1.00;99.90;;;;;;5071146;28;20231;-74
2020/12/14 04:32:50;;;;;;;69.95;10.90;;;1.00;99.90;;;;;;5071596;28;20204;-73
2020/12/14 04:35:16;;;;;;;69.25;10.50;;;1.00;99.90;;;;;;5071499;28;20299;-74
2020/12/14 04:37:43;;;;;;;70.57;11.20;;;1.00;99.90;;;;;;5071421;28;20205;-74
2020/12/14 04:40:09;;;;;;;68.05;9.60;;;1.00;99.90;;;;;;5071154;28;20219;-74
2020/12/14 04:42:37;;;;;;;68.13;10.35;;;1.00;99.90;;;;;;5071325;28;20307;-73
2020/12/14 04:45:04;;;;;;;73.20;10.43;;;1.00;99.90;;;;;;5071196;28;20209;-74
2020/12/14 04:47:31;;;;;;;70.38;11.40;;;0.90;99.90;;;;;;5071498;28;20291;-73
2020/12/14 04:49:58;;;;;;;67.22;10.55;;;0.90;99.90;;;;;;5072375;28;20221;-74
2020/12/14 04:52:24;;;;;;;68.70;10.32;;;0.90;99.90;;;;;;5075359;28;20205;-73
2020/12/14 04:54:52;;;;;;;69.38;10.68;;;0.90;99.90;;;;;;5075405;28;20295;-73
2020/12/14 04:57:21;;;;;;;69.05;9.55;;;0.90;99.90;;;;;;5074948;28;20228;-73
2020/12/14 04:59:50;;;;;;;69.70;10.70;;;0.90;99.90;;;;;;5075504;28;20201;-73
2020/12/14 05:02:16;;;;;;;71.15;10.20;;;0.90;99.90;;;;;;5074960;28;20594;-73
2020/12/14 05:04:43;;;;;;;71.30;12.50;;;0.90;99.90;;;;;;5075130;28;20209;-73
2020/12/14 05:07:12;;;;;;;68.63;11.13;;;0.90;99.90;;;;;;5075174;28;20319;-73
2020/12/14 05:09:40;;;;;;;72.95;11.13;;;0.90;99.90;;;;;;5075009;28;20228;-73
2020/12/14 05:12:17;;;;;;;70.80;11.00;;;0.80;99.90;;;;;;5074927;28;20502;-73
2020/12/14 05:14:44;;;;;;;70.20;10.38;;;0.80;99.90;;;;;;5075202;28;20199;-73
2020/12/14 05:17:22;;;;;;;66.38;10.52;;;0.80;99.90;;;;;;5075138;28;20225;-74
2020/12/14 05:19:48;;;;;;;73.15;10.95;;;0.80;99.90;;;;;;5074986;28;20201;-73
2020/12/14 05:22:16;;;;;;;68.55;10.50;;;0.80;99.90;;;;;;5074450;28;20209;-73
2020/12/14 05:24:49;;;;;;;73.70;11.68;;;0.80;99.90;;;;;;5075042;28;20243;-74
2020/12/14 05:27:29;;;;;;;71.10;11.90;;;0.70;99.90;;;;;;5074874;28;20228;-74
2020/12/14 05:29:55;;;;;;;70.10;11.05;;;0.70;99.90;;;;;;5074800;28;20266;-73
2020/12/14 05:32:23;;;;;;;70.82;11.90;;;0.70;99.90;;;;;;5074309;28;20209;-74
2020/12/14 05:34:49;;;;;;;66.07;9.32;;;0.70;99.90;;;;;;5074460;28;20209;-74
2020/12/14 05:37:16;;;;;;;67.47;9.73;;;0.70;99.90;;;;;;5074426;28;20783;-73
2020/12/14 05:39:44;;;;;;;67.70;10.15;;;0.70;99.90;;;;;;5074745;28;20205;-73
2020/12/14 05:42:15;;;;;;;71.80;11.05;;;0.60;99.90;;;;;;5074317;28;20208;-74
2020/12/14 05:44:43;;;;;;;67.57;10.50;;;0.70;99.90;;;;;;5074486;28;20586;-74
2020/12/14 05:47:23;;;;;;;69.60;10.40;;;0.70;99.90;;;;;;5074284;28;20639;-74
2020/12/14 05:49:50;;;;;;;66.80;10.25;;;0.60;99.90;;;;;;5074636;28;20225;-73
2020/12/14 05:52:19;;;;;;;65.13;10.02;;;0.60;99.90;;;;;;5073986;28;20221;-73
2020/12/14 05:54:51;;;;;;;70.60;11.27;;;0.60;99.90;;;;;;5074436;28;20213;-73
2020/12/14 05:57:29;;;;;;;68.05;10.75;;;0.60;99.90;;;;;;5077025;28;20243;-74
2020/12/14 05:59:58;;;;;;;69.20;10.32;;;0.60;99.90;;;;;;5076472;28;20208;-73
2020/12/14 06:02:26;;;;;;;72.20;10.98;;;0.60;99.90;;;;;;5073918;28;20219;-73
2020/12/14 06:04:56;;;;;;;68.72;11.45;;;0.60;99.90;;;;;;5074125;28;20213;-73
2020/12/14 06:07:25;;;;;;;72.63;11.02;;;0.60;99.90;;;;;;5074180;28;20241;-73
2020/12/14 06:10:03;;;;;;;74.78;10.55;;;0.60;99.90;;;;;;5073956;28;20224;-74
2020/12/14 06:12:30;;;;;;;75.18;11.02;;;0.60;99.90;;;;;;5073944;28;20205;-74
2020/12/14 06:14:59;;;;;;;73.13;11.52;;;0.50;99.90;;;;;;5074120;28;20205;-74
2020/12/14 06:17:28;;;;;;;73.47;10.90;;;0.60;99.90;;;;;;5074294;28;20497;-74
2020/12/14 06:20:02;;;;;;;69.80;11.18;;;0.60;99.90;;;;;;5074333;28;20284;-75
2020/12/14 06:22:31;;;;;;;69.38;11.80;;;0.60;99.90;;;;;;5074246;28;20200;-75
2020/12/14 06:24:59;;;;;;;71.72;11.13;;;0.60;99.90;;;;;;5074147;28;20575;-74
2020/12/14 06:27:27;;;;;;;67.78;10.50;;;0.60;99.90;;;;;;5073960;28;20233;-74
2020/12/14 06:29:54;;;;;;;75.75;10.77;;;0.50;99.90;;;;;;5073913;28;20225;-74
2020/12/14 06:32:38;;;;;;;69.22;10.57;;;0.50;99.90;;;;;;5073550;28;20205;-73
2020/12/14 06:35:07;;;;;;;67.60;10.07;;;0.50;99.90;;;;;;5073328;28;20201;-73
2020/12/14 06:37:55;;;;;;;71.35;11.50;;;0.50;99.90;;;;;;5073410;28;20286;-72
2020/12/14 06:40:22;;;;;;;70.85;10.88;;;0.50;99.90;;;;;;5068749;28;20205;-72
2020/12/14 06:42:48;;;;;;;71.45;11.77;;;0.50;99.90;;;;;;5073368;28;20579;-72
2020/12/14 06:45:16;;;;;;;69.43;11.57;;;0.50;99.90;;;;;;5073235;28;20201;-72
2020/12/14 06:47:49;;;;;;;68.05;11.15;;;0.50;99.90;;;;;;5073040;28;20208;-71
2020/12/14 06:50:43;;;;;;;69.82;10.80;;;0.50;99.90;;;;;;5071805;28;20324;-72
2020/12/14 06:53:47;;;;;;;67.90;10.65;;;0.50;99.90;;;;;;5073060;28;20315;-72
2020/12/14 06:56:17;;;;;;;68.93;10.50;;;0.50;99.90;;;;;;5072761;28;20762;-72
2020/12/14 06:58:45;;;;;;;71.03;10.88;;;0.50;99.90;;;;;;5073122;28;20255;-73
2020/12/14 07:01:32;;;;;;;66.60;10.93;;;0.40;99.90;;;;;;5072908;28;20245;-74
2020/12/14 07:04:00;;;;;;;66.70;11.27;;;0.50;99.90;;;;;;5072700;28;20208;-74
2020/12/14 07:06:27;;;;;;;68.68;11.60;;;0.50;99.90;;;;;;5072552;28;20720;-73
2020/12/14 07:08:54;;;;;;;75.03;11.68;;;0.50;99.90;;;;;;5072935;28;20201;-74
2020/12/14 07:11:23;;;;;;;68.53;10.90;;;0.40;99.90;;;;;;5072804;28;20205;-74
2020/12/14 07:13:50;;;;;;;70.82;10.68;;;0.50;99.90;;;;;;5071912;28;20205;-74
2020/12/14 07:16:19;;;;;;;77.97;11.65;;;0.50;99.90;;;;;;5073017;28;20282;-74
2020/12/14 07:18:47;;;;;;;66.32;10.15;;;0.50;99.90;;;;;;5072702;28;20208;-73
2020/12/14 07:21:16;;;;;;;67.03;10.90;;;0.40;99.90;;;;;;5072121;28;20209;-74
2020/12/14 07:23:45;;;;;;;67.95;10.60;;;0.50;99.90;;;;;;5072464;28;20225;-73
2020/12/14 07:26:13;;;;;;;73.35;12.82;;;0.50;99.90;;;;;;5072475;28;20311;-73
2020/12/14 07:28:47;;;;;;;73.47;12.40;;;0.50;99.90;;;;;;5072502;28;20251;-74
2020/12/14 07:31:17;;;;;;;70.90;11.98;;;0.50;99.90;;;;;;5072150;28;20224;-74
2020/12/14 07:33:52;;;;;;;71.78;11.82;;;0.50;99.90;;;;;;5072177;28;20263;-73
2020/12/14 07:36:20;;;;;;;69.15;11.50;;;0.50;99.90;;;;;;5072046;28;20726;-73
2020/12/14 07:42:09;;;;;;;69.55;10.70;;;0.60;99.90;;;;;;5070935;28;20327;-74
2020/12/14 07:44:35;;;;;;;73.93;11.73;;;0.60;99.90;;;;;;5050225;28;20548;-73
2020/12/14 07:47:01;;;;;;;71.25;11.77;;;0.60;99.90;;;;;;5052026;28;20229;-74
2020/12/14 07:49:28;;;;;;;68.70;10.80;;;0.70;99.90;;;;;;5052039;28;20317;-74
2020/12/14 07:51:57;;;;;;;72.60;12.88;;;0.70;99.90;;;;;;5051946;28;20233;-75
2020/12/14 07:54:24;;;;;;;71.18;11.35;;;0.70;99.90;;;;;;5054123;28;20347;-74
2020/12/14 07:56:57;;;;;;;67.82;11.20;;;0.70;99.90;;;;;;5054421;28;20720;-75
2020/12/14 07:59:24;;;;;;;71.15;12.35;;;0.80;99.90;;;;;;5054152;28;20206;-75
2020/12/14 08:01:51;;;;;;;70.18;11.27;;;0.80;99.90;;;;;;5052321;28;20232;-74
2020/12/14 08:04:26;;;;;;;70.82;11.00;;;0.90;99.90;;;;;;5052138;28;20240;-74
2020/12/14 08:06:54;;;;;;;68.47;11.63;;;0.90;99.90;;;;;;5051772;28;20634;-74
2020/12/14 08:09:24;;;;;;;73.20;12.57;;;1.00;99.90;;;;;;5051539;28;20308;-73
2020/12/14 08:11:52;;;;;;;70.60;12.63;;;1.00;99.90;;;;;;5051777;28;20211;-74
2020/12/14 08:14:19;;;;;;;73.68;13.07;;;1.10;99.90;;;;;;5051913;28;20339;-74
2020/12/14 08:16:47;;;;;;;79.38;12.73;;;1.10;99.90;;;;;;5051690;28;20317;-74
2020/12/14 08:19:18;;;;;;;72.75;12.88;;;1.20;99.90;;;;;;5051418;28;20677;-74
2020/12/14 08:22:00;;;;;;;72.72;12.55;;;1.20;99.90;;;;;;5051278;28;20300;-73
2020/12/14 08:24:27;;;;;;;78.05;13.20;;;1.30;99.90;;;;;;5051467;28;20232;-74
2020/12/14 08:26:59;;;;;;;75.22;12.82;;;1.40;99.90;;;;;;5051761;28;20324;-74
2020/12/14 08:29:28;;;;;;;75.72;13.15;;;1.40;99.90;;;;;;5051296;28;20232;-75
2020/12/14 08:31:57;;;;;;;76.97;12.90;;;1.50;99.90;;;;;;5051273;28;20715;-74
2020/12/14 08:34:37;;;;;;;77.15;13.90;;;1.60;99.90;;;;;;5051166;28;20633;-75
2020/12/14 08:37:05;;;;;;;74.00;13.27;;;1.70;99.90;;;;;;5051312;28;20775;-75
2020/12/14 08:39:33;;;;;;;77.85;12.80;;;1.70;99.90;;;;;;5051504;28;20335;-74
2020/12/14 08:42:08;;;;;;;80.38;13.98;;;1.80;99.90;;;;;;5050945;28;20756;-75
2020/12/14 08:44:36;;;;;;;74.20;13.95;;;1.90;99.90;;;;;;5051212;28;20668;-75
2020/12/14 08:47:11;;;;;;;81.18;14.73;;;2.00;99.90;;;;;;5050937;28;20230;-75
2020/12/14 08:49:37;;;;;;;79.80;15.25;;;2.10;99.90;;;;;;5051070;28;20695;-75
2020/12/14 08:52:03;;;;;;;81.10;14.55;;;2.20;99.90;;;;;;5050960;28;20210;-74
2020/12/14 08:54:30;;;;;;;80.05;13.48;;;2.30;99.90;;;;;;5051236;28;20579;-74
2020/12/14 08:56:57;;;;;;;80.78;14.32;;;2.30;99.90;;;;;;5051032;28;20244;-75
2020/12/14 08:59:25;;;;;;;75.72;13.13;;;2.40;99.90;;;;;;5073895;22;20202;-71
2020/12/14 09:01:56;;;;;;;82.45;14.00;;;2.50;99.90;;;;;;5012642;28;20242;-70
2020/12/14 09:04:30;;;;;;;87.95;15.07;;;2.60;99.90;;;;;;5013630;28;20238;-71
2020/12/14 09:06:57;;;;;;;79.80;14.43;;;2.70;99.90;;;;;;5013577;28;20206;-70
2020/12/14 09:09:34;;;;;;;86.20;14.23;;;2.80;99.90;;;;;;5013465;28;20581;-71
2020/12/14 09:12:02;;;;;;;89.45;15.75;;;2.90;99.90;;;;;;5012498;28;20211;-70
2020/12/14 09:14:31;;;;;;;83.43;15.88;;;3.10;99.90;;;;;;5013155;28;20277;-71
2020/12/14 09:17:00;;;;;;;87.45;16.10;;;3.20;99.90;;;;;;5013074;28;20210;-70
2020/12/14 09:19:28;;;;;;;94.43;16.55;;;3.30;99.90;;;;;;5012864;28;20202;-70
2020/12/14 09:21:55;;;;;;;88.53;15.98;;;3.40;99.90;;;;;;5012849;28;20592;-70
2020/12/14 09:24:24;;;;;;;98.97;17.60;;;3.60;99.90;;;;;;5012579;28;20237;-69
2020/12/14 09:26:52;;;;;;;88.72;16.95;;;3.70;99.90;;;;;;5012901;28;20269;-69
2020/12/14 09:29:19;;;;;;;94.18;18.48;;;3.90;99.90;;;;;;5012547;28;20211;-69
2020/12/14 09:31:50;;;;;;;86.75;17.88;;;4.10;99.90;;;;;;5011866;28;20225;-68
2020/12/14 09:34:17;;;;;;;91.95;18.48;;;4.20;99.90;;;;;;5012247;28;20234;-69
2020/12/14 09:36:43;;;;;;;86.00;16.33;;;4.40;99.90;;;;;;5014843;28;20213;-69
2020/12/14 09:39:10;;;;;;;86.82;16.08;;;4.60;99.90;;;;;;5015984;28;20555;-69
2020/12/14 09:41:36;;;;;;;94.32;18.67;;;4.80;99.90;;;;;;5015477;28;20211;-67
2020/12/14 09:44:02;;;;;;;88.20;17.65;;;5.00;99.90;;;;;;5014689;28;20773;-67
2020/12/14 09:46:30;;;;;;;84.57;16.85;;;5.30;99.90;;;;;;5015082;28;20249;-67
2020/12/14 09:48:58;;;;;;;95.15;16.73;;;5.50;99.90;;;;;;5017468;28;20204;-69
2020/12/14 09:51:25;;;;;;;87.85;16.63;;;5.80;99.90;;;;;;5019843;28;20231;-69
2020/12/14 09:53:52;;;;;;;81.22;14.90;;;6.00;99.90;;;;;;5021967;28;20374;-69
2020/12/14 09:56:19;;;;;;;84.93;15.63;;;6.00;99.90;;;;;;5020019;28;20211;-69
2020/12/14 09:58:45;;;;;;;93.00;15.25;;;6.20;99.90;;;;;;5020373;28;20213;-70
2020/12/14 10:01:12;;;;;;;73.30;13.63;;;6.30;99.90;;;;;;5019917;28;20779;-70
2020/12/14 10:03:39;;;;;;;79.77;14.00;;;6.60;99.90;;;;;;5021727;28;20280;-70
2020/12/14 10:06:06;;;;;;;71.27;13.77;;;7.10;99.90;;;;;;5023851;28;20523;-70
2020/12/14 10:08:32;;;;;;;67.90;13.20;;;7.80;99.90;;;;;;5022932;28;20554;-70
2020/12/14 10:10:59;;;;;;;66.70;12.70;;;8.70;99.90;;;;;;5022375;28;20525;-70
2020/12/14 10:13:25;;;;;;;69.60;12.40;;;9.50;99.90;;;;;;5019810;28;20525;-69
2020/12/14 10:15:52;;;;;;;68.07;14.50;;;10.30;99.90;;;;;;5020399;28;20476;-69
2020/12/14 10:18:18;;;;;;;73.60;13.30;;;11.10;99.90;;;;;;5020320;28;20973;-69
2020/12/14 10:20:46;;;;;;;66.33;11.40;;;11.60;99.90;;;;;;5019993;28;20465;-69
2020/12/14 10:23:13;;;;;;;66.20;11.20;;;11.70;99.90;;;;;;5022285;28;20473;-70
2020/12/14 10:25:40;;;;;;;65.63;11.57;;;11.60;99.90;;;;;;5020547;28;20965;-69
2020/12/14 10:28:07;;;;;;;66.40;10.90;;;11.30;99.90;;;;;;5020666;28;20508;-69
2020/12/14 10:30:34;;;;;;;64.07;10.60;;;10.80;99.90;;;;;;5019924;28;20513;-68
2020/12/14 10:33:01;;;;;;;62.87;10.03;;;10.30;99.90;;;;;;5019519;28;20536;-69
2020/12/14 10:35:27;;;;;;;62.30;9.40;;;9.90;99.90;;;;;;5019883;28;20514;-70
2020/12/14 10:37:55;;;;;;;61.50;8.87;;;9.70;99.90;;;;;;5021357;28;20580;-70
2020/12/14 10:40:22;;;;;;;65.10;9.73;;;9.70;99.90;;;;;;5019996;28;20500;-70
2020/12/14 10:42:48;;;;;;;62.70;9.33;;;9.60;99.90;;;;;;5019348;28;20462;-70
2020/12/14 10:45:15;;;;;;;63.70;9.47;;;9.50;99.90;;;;;;5020211;28;20444;-69
2020/12/14 10:47:41;;;;;;;64.77;9.47;;;9.50;99.90;;;;;;5018371;28;20454;-68
2020/12/14 10:50:08;;;;;;;67.53;9.70;;;9.60;99.90;;;;;;5020217;28;20591;-70
2020/12/14 10:52:35;;;;;;;64.10;10.57;;;9.70;99.90;;;;;;5022537;28;20464;-69
2020/12/14 10:55:03;;;;;;;62.80;9.43;;;9.60;99.90;;;;;;5023434;28;20820;-69
2020/12/14 10:57:29;;;;;;;63.90;8.90;;;9.50;97.60;;;;;;5022849;28;20447;-69
2020/12/14 10:59:58;;;;;;;61.40;8.37;;;9.50;96.90;;;;;;5019090;28;20509;-69
2020/12/14 11:02:24;;;;;;;62.50;9.00;;;9.30;93.70;;;;;;5018220;28;20859;-70
2020/12/14 11:04:52;;;;;;;66.00;9.07;;;9.10;98.00;;;;;;5019362;28;20552;-69
2020/12/14 11:07:18;;;;;;;63.17;8.10;;;9.00;94.20;;;;;;5019478;28;20453;-68
2020/12/14 11:09:45;;;;;;;63.10;9.30;;;8.80;95.90;;;;;;5019253;28;20495;-68
2020/12/14 11:12:12;;;;;;;63.00;8.80;;;8.70;96.80;;;;;;5018178;28;20541;-69
2020/12/14 11:14:38;;;;;;;64.50;9.30;;;8.70;97.20;;;;;;5018393;28;20578;-69
2020/12/14 11:17:05;;;;;;;64.23;9.60;;;8.70;94.20;;;;;;5018493;28;20479;-69
2020/12/14 11:19:31;;;;;;;66.17;10.30;;;8.60;96.00;;;;;;5018651;28;20544;-69
2020/12/14 11:21:58;;;;;;;67.03;12.10;;;8.70;96.70;;;;;;5019989;28;20484;-68
2020/12/14 11:24:25;;;;;;;65.20;9.57;;;8.70;99.90;;;;;;5020268;28;20539;-69
2020/12/14 11:26:51;;;;;;;63.50;9.57;;;8.70;96.50;;;;;;5020107;28;20479;-69
2020/12/14 11:29:19;;;;;;;68.37;11.90;;;8.80;94.10;;;;;;5020045;28;20479;-69
2020/12/14 11:31:45;;;;;;;62.00;8.80;;;8.90;95.20;;;;;;5020173;28;20500;-68
2020/12/14 11:34:12;;;;;;;64.77;8.87;;;8.90;92.60;;;;;;5020926;28;20453;-69
2020/12/14 11:36:39;;;;;;;62.43;8.43;;;8.90;95.50;;;;;;5020306;28;20480;-69
2020/12/14 11:39:05;;;;;;;62.37;8.20;;;8.80;97.30;;;;;;5020599;28;21020;-69
2020/12/14 11:41:31;;;;;;;62.67;8.60;;;8.80;93.60;;;;;;5020183;28;20496;-68
2020/12/14 11:43:58;;;;;;;62.37;8.33;;;8.70;93.20;;;;;;5017471;28;20524;-68
2020/12/14 11:46:26;;;;;;;62.07;8.27;;;8.70;93.30;;;;;;5019172;28;20484;-68
2020/12/14 11:48:52;;;;;;;60.77;7.90;;;8.60;94.20;;;;;;5023826;28;20465;-69
2020/12/14 11:51:19;;;;;;;63.43;10.13;;;8.50;99.90;;;;;;5020017;28;20497;-70
2020/12/14 11:53:45;;;;;;;65.03;10.30;;;8.40;99.60;;;;;;5017149;28;20523;-69
2020/12/14 11:56:11;;;;;;;63.70;9.83;;;8.50;99.90;;;;;;5018082;28;20497;-69
2020/12/14 11:58:38;;;;;;;64.67;9.37;;;8.50;97.00;;;;;;5018807;28;20452;-69
2020/12/14 12:01:04;;;;;;;61.77;8.23;;;8.60;93.80;;;;;;5018971;28;20477;-69
2020/12/14 12:03:31;;;;;;;61.00;7.23;;;8.60;96.50;;;;;;5019091;28;20544;-69
2020/12/14 12:05:58;;;;;;;61.70;8.13;;;8.60;95.70;;;;;;5017870;28;20498;-70
2020/12/14 12:08:24;;;;;;;64.30;9.60;;;8.60;96.00;;;;;;5017988;28;20487;-69
2020/12/14 12:10:51;;;;;;;61.57;8.50;;;8.70;94.80;;;;;;5017676;28;20496;-70
2020/12/14 12:13:17;;;;;;;62.93;9.20;;;8.70;99.90;;;;;;5017743;28;20543;-71
2020/12/14 12:15:43;;;;;;;64.23;9.50;;;8.80;99.90;;;;;;5018107;28;20457;-70
2020/12/14 12:18:10;;;;;;;62.97;9.00;;;8.90;96.80;;;;;;5018707;28;20457;-70
2020/12/14 12:20:37;;;;;;;63.97;9.10;;;9.00;99.90;;;;;;5018226;28;20500;-70
2020/12/14 12:23:04;;;;;;;63.80;9.03;;;9.10;99.90;;;;;;5017007;28;20519;-70
2020/12/14 12:25:30;;;;;;;64.30;9.73;;;9.30;99.90;;;;;;5015549;28;20917;-70
2020/12/14 12:27:56;;;;;;;64.10;9.83;;;9.40;95.10;;;;;;5015475;28;20462;-69
2020/12/14 12:30:23;;;;;;;64.10;9.50;;;9.50;99.90;;;;;;5015870;28;20588;-69
2020/12/14 12:32:49;;;;;;;63.37;9.40;;;9.60;99.90;;;;;;5016174;28;20449;-69
2020/12/14 12:35:16;;;;;;;62.87;9.67;;;9.60;99.90;;;;;;5016374;28;20827;-70
2020/12/14 12:37:43;;;;;;;68.13;9.37;;;9.60;99.30;;;;;;5016627;28;20553;-70
2020/12/14 12:40:10;;;;;;;63.50;9.37;;;9.60;99.90;;;;;;5016363;28;20465;-69
2020/12/14 12:42:37;;;;;;;63.90;9.70;;;9.50;99.90;;;;;;5016200;28;20446;-69
2020/12/14 12:45:05;;;;;;;64.03;9.00;;;9.50;99.90;;;;;;5017106;28;20465;-70